sensor_id;sensor_type;location;lat;lon;timestamp;temperature;humidity
21823;DHT22;11074;48.596;9.238;2023-04-24T00:00:16;12.70;99.90
21823;DHT22;11074;48.596;9.238;2023-04-24T00:02:43;12.70;99.90
21823;DHT22;11074;48.596;9.238;2023-04-24T00:05:14;12.70;99.90
21823;DHT22;11074;48.596;9.238;2023-04-24T00:07:41;12.60;99.90
21823;DHT22;11074;48.596;9.238;2023-04-24T00:10:08;12.60;99.90
21823;DHT22;11074;48.596;9.238;2023-04-24T00:12:34;12.60;99.90
21823;DHT22;11074;48.596;9.238;2023-04-24T00:15:00;12.60;99.90
21823;DHT22;11074;48.596;9.238;2023-04-24T00:17:26;12.60;99.90
21823;DHT22;11074;48.596;9.238;2023-04-24T00:19:52;12.60;99.90
21823;DHT22;11074;48.596;9.238;2023-04-24T00:22:24;12.60;99.90
21823;DHT22;11074;48.596;9.238;2023-04-24T00:24:50;12.60;99.90
21823;DHT22;11074;48.596;9.238;2023-04-24T00:27:16;12.60;99.90
21823;DHT22;11074;48.596;9.238;2023-04-24T00:29:42;12.60;99.90
21823;DHT22;11074;48.596;9.238;2023-04-24T00:32:07;12.60;99.90
21823;DHT22;11074;48.596;9.238;2023-04-24T00:34:33;12.50;99.90
21823;DHT22;11074;48.596;9.238;2023-04-24T00:36:59;12.60;99.90
21823;DHT22;11074;48.596;9.238;2023-04-24T00:39:24;12.50;99.90
21823;DHT22;11074;48.596;9.238;2023-04-24T00:41:50;12.50;99.90
21823;DHT22;11074;48.596;9.238;2023-04-24T00:44:16;12.50;99.90
21823;DHT22;11074;48.596;9.238;2023-04-24T00:46:43;12.50;99.90
21823;DHT22;11074;48.596;9.238;2023-04-24T00:49:09;12.50;99.90
21823;DHT22;11074;48.596;9.238;2023-04-24T00:51:34;12.40;99.90
21823;DHT22;11074;48.596;9.238;2023-04-24T00:54:02;12.50;99.90
21823;DHT22;11074;48.596;9.238;2023-04-24T00:56:28;12.50;99.90
21823;DHT22;11074;48.596;9.238;2023-04-24T00:58:54;12.50;99.90
21823;DHT22;11074;48.596;9.238;2023-04-24T01:01:21;12.50;99.90
21823;DHT22;11074;48.596;9.238;2023-04-24T01:03:49;12.50;99.90
21823;DHT22;11074;48.596;9.238;2023-04-24T01:06:16;12.40;99.90
21823;DHT22;11074;48.596;9.238;2023-04-24T01:08:45;12.40;99.90
21823;DHT22;11074;48.596;9.238;2023-04-24T01:11:13;12.50;99.90
21823;DHT22;11074;48.596;9.238;2023-04-24T01:13:39;12.50;99.90
21823;DHT22;11074;48.596;9.238;2023-04-24T01:16:05;12.50;99.90
21823;DHT22;11074;48.596;9.238;2023-04-24T01:18:31;12.50;99.90
21823;DHT22;11074;48.596;9.238;2023-04-24T01:20:58;12.50;99.90
21823;DHT22;11074;48.596;9.238;2023-04-24T01:23:28;12.50;99.90
21823;DHT22;11074;48.596;9.238;2023-04-24T01:25:54;12.50;99.90
21823;DHT22;11074;48.596;9.238;2023-04-24T01:28:21;12.50;99.90
21823;DHT22;11074;48.596;9.238;2023-04-24T01:30:48;12.50;99.90
21823;DHT22;11074;48.596;9.238;2023-04-24T01:33:14;12.50;99.90
21823;DHT22;11074;48.596;9.238;2023-04-24T01:35:40;12.50;99.90
21823;DHT22;11074;48.596;9.238;2023-04-24T01:38:06;12.50;99.90
21823;DHT22;11074;48.596;9.238;2023-04-24T01:40:32;12.40;99.90
21823;DHT22;11074;48.596;9.238;2023-04-24T01:42:58;12.40;99.90
21823;DHT22;11074;48.596;9.238;2023-04-24T01:45:24;12.40;99.90
21823;DHT22;11074;48.596;9.238;2023-04-24T01:47:50;12.40;99.90
21823;DHT22;11074;48.596;9.238;2023-04-24T01:50:16;12.40;99.90
21823;DHT22;11074;48.596;9.238;2023-04-24T01:52:42;12.40;99.90
21823;DHT22;11074;48.596;9.238;2023-04-24T01:55:09;12.40;99.90
21823;DHT22;11074;48.596;9.238;2023-04-24T01:57:35;12.40;99.90
21823;DHT22;11074;48.596;9.238;2023-04-24T02:00:02;12.40;99.90
21823;DHT22;11074;48.596;9.238;2023-04-24T02:02:32;12.40;99.90
21823;DHT22;11074;48.596;9.238;2023-04-24T02:04:59;12.40;99.90
21823;DHT22;11074;48.596;9.238;2023-04-24T02:07:24;12.40;99.90
21823;DHT22;11074;48.596;9.238;2023-04-24T02:09:50;12.40;99.90
21823;DHT22;11074;48.596;9.238;2023-04-24T02:12:16;12.50;99.90
21823;DHT22;11074;48.596;9.238;2023-04-24T02:14:43;12.50;99.90
21823;DHT22;11074;48.596;9.238;2023-04-24T02:17:09;12.50;99.90
21823;DHT22;11074;48.596;9.238;2023-04-24T02:19:38;12.50;99.90
21823;DHT22;11074;48.596;9.238;2023-04-24T02:22:04;12.50;99.90
21823;DHT22;11074;48.596;9.238;2023-04-24T02:24:30;12.50;99.90
21823;DHT22;11074;48.596;9.238;2023-04-24T02:26:55;12.50;99.90
21823;DHT22;11074;48.596;9.238;2023-04-24T02:29:21;12.50;99.90
21823;DHT22;11074;48.596;9.238;2023-04-24T02:31:47;12.40;99.90
21823;DHT22;11074;48.596;9.238;2023-04-24T02:34:12;12.40;99.90
21823;DHT22;11074;48.596;9.238;2023-04-24T02:36:38;12.30;99.90
21823;DHT22;11074;48.596;9.238;2023-04-24T02:39:04;12.20;99.90
21823;DHT22;11074;48.596;9.238;2023-04-24T02:41:29;12.10;99.90
21823;DHT22;11074;48.596;9.238;2023-04-24T02:43:58;12.10;99.90
21823;DHT22;11074;48.596;9.238;2023-04-24T02:46:25;12.00;99.90
21823;DHT22;11074;48.596;9.238;2023-04-24T02:48:51;12.00;99.90
21823;DHT22;11074;48.596;9.238;2023-04-24T02:51:17;12.10;99.90
21823;DHT22;11074;48.596;9.238;2023-04-24T02:53:42;12.00;99.90
21823;DHT22;11074;48.596;9.238;2023-04-24T02:56:08;12.10;99.90
21823;DHT22;11074;48.596;9.238;2023-04-24T02:58:34;12.10;99.90
21823;DHT22;11074;48.596;9.238;2023-04-24T03:01:00;12.20;99.90
21823;DHT22;11074;48.596;9.238;2023-04-24T03:03:26;12.10;99.90
21823;DHT22;11074;48.596;9.238;2023-04-24T03:05:52;12.10;99.90
21823;DHT22;11074;48.596;9.238;2023-04-24T03:08:18;12.10;99.90
21823;DHT22;11074;48.596;9.238;2023-04-24T03:10:43;12.00;99.90
21823;DHT22;11074;48.596;9.238;2023-04-24T03:13:09;11.90;99.90
21823;DHT22;11074;48.596;9.238;2023-04-24T03:15:35;11.90;99.90
21823;DHT22;11074;48.596;9.238;2023-04-24T03:18:01;11.90;99.90
21823;DHT22;11074;48.596;9.238;2023-04-24T03:20:27;12.00;99.90
21823;DHT22;11074;48.596;9.238;2023-04-24T03:22:53;12.00;99.90
21823;DHT22;11074;48.596;9.238;2023-04-24T03:25:19;12.10;99.90
21823;DHT22;11074;48.596;9.238;2023-04-24T03:27:45;12.10;99.90
21823;DHT22;11074;48.596;9.238;2023-04-24T03:30:11;12.10;99.90
21823;DHT22;11074;48.596;9.238;2023-04-24T03:32:37;12.10;99.90
21823;DHT22;11074;48.596;9.238;2023-04-24T03:35:05;12.10;99.90
21823;DHT22;11074;48.596;9.238;2023-04-24T03:37:32;12.00;99.90
21823;DHT22;11074;48.596;9.238;2023-04-24T03:39:58;12.00;99.90
21823;DHT22;11074;48.596;9.238;2023-04-24T03:42:24;11.90;99.90
21823;DHT22;11074;48.596;9.238;2023-04-24T03:44:49;11.90;99.90
21823;DHT22;11074;48.596;9.238;2023-04-24T03:47:15;11.90;99.90
21823;DHT22;11074;48.596;9.238;2023-04-24T03:49:41;11.90;99.90
21823;DHT22;11074;48.596;9.238;2023-04-24T03:52:06;11.80;99.90
21823;DHT22;11074;48.596;9.238;2023-04-24T03:54:32;11.80;99.90
21823;DHT22;11074;48.596;9.238;2023-04-24T03:56:58;11.80;99.90
21823;DHT22;11074;48.596;9.238;2023-04-24T03:59:23;11.70;99.90
21823;DHT22;11074;48.596;9.238;2023-04-24T04:01:49;11.60;99.90
21823;DHT22;11074;48.596;9.238;2023-04-24T04:04:15;11.70;99.90
21823;DHT22;11074;48.596;9.238;2023-04-24T04:06:40;11.60;99.90
21823;DHT22;11074;48.596;9.238;2023-04-24T04:09:07;11.70;99.90
21823;DHT22;11074;48.596;9.238;2023-04-24T04:11:33;11.70;99.90
21823;DHT22;11074;48.596;9.238;2023-04-24T04:14:01;11.70;99.90
21823;DHT22;11074;48.596;9.238;2023-04-24T04:16:26;11.70;99.90
21823;DHT22;11074;48.596;9.238;2023-04-24T04:18:52;11.60;99.90
21823;DHT22;11074;48.596;9.238;2023-04-24T04:21:18;11.60;99.90
21823;DHT22;11074;48.596;9.238;2023-04-24T04:23:43;11.60;99.90
21823;DHT22;11074;48.596;9.238;2023-04-24T04:26:10;11.60;99.90
21823;DHT22;11074;48.596;9.238;2023-04-24T04:28:38;11.70;99.90
21823;DHT22;11074;48.596;9.238;2023-04-24T04:31:04;11.70;99.90
21823;DHT22;11074;48.596;9.238;2023-04-24T04:33:30;11.70;99.90
21823;DHT22;11074;48.596;9.238;2023-04-24T04:35:56;11.70;99.90
21823;DHT22;11074;48.596;9.238;2023-04-24T04:38:25;11.70;99.90
21823;DHT22;11074;48.596;9.238;2023-04-24T04:40:56;11.70;99.90
21823;DHT22;11074;48.596;9.238;2023-04-24T04:43:23;11.60;99.90
21823;DHT22;11074;48.596;9.238;2023-04-24T04:45:49;11.50;99.90
21823;DHT22;11074;48.596;9.238;2023-04-24T04:48:17;11.50;99.90
21823;DHT22;11074;48.596;9.238;2023-04-24T04:50:44;11.60;99.90
21823;DHT22;11074;48.596;9.238;2023-04-24T04:53:10;11.60;99.90
21823;DHT22;11074;48.596;9.238;2023-04-24T04:55:37;11.60;99.90
21823;DHT22;11074;48.596;9.238;2023-04-24T04:58:02;11.60;99.90
21823;DHT22;11074;48.596;9.238;2023-04-24T05:00:29;11.60;99.90
21823;DHT22;11074;48.596;9.238;2023-04-24T05:02:59;11.60;99.90
21823;DHT22;11074;48.596;9.238;2023-04-24T05:05:25;11.60;99.90
21823;DHT22;11074;48.596;9.238;2023-04-24T05:07:51;11.60;99.90
21823;DHT22;11074;48.596;9.238;2023-04-24T05:10:17;11.60;99.90
21823;DHT22;11074;48.596;9.238;2023-04-24T05:12:42;11.60;99.90
21823;DHT22;11074;48.596;9.238;2023-04-24T05:15:08;11.60;99.90
21823;DHT22;11074;48.596;9.238;2023-04-24T05:17:34;11.60;99.90
21823;DHT22;11074;48.596;9.238;2023-04-24T05:20:00;11.60;99.90
21823;DHT22;11074;48.596;9.238;2023-04-24T05:22:26;11.60;99.90
21823;DHT22;11074;48.596;9.238;2023-04-24T05:24:51;11.60;99.90
21823;DHT22;11074;48.596;9.238;2023-04-24T05:27:17;11.60;99.90
21823;DHT22;11074;48.596;9.238;2023-04-24T05:29:43;11.60;99.90
21823;DHT22;11074;48.596;9.238;2023-04-24T05:32:09;11.60;99.90
21823;DHT22;11074;48.596;9.238;2023-04-24T05:34:34;11.60;99.90
21823;DHT22;11074;48.596;9.238;2023-04-24T05:37:00;11.60;99.90
21823;DHT22;11074;48.596;9.238;2023-04-24T05:39:26;11.60;99.90
21823;DHT22;11074;48.596;9.238;2023-04-24T05:41:52;11.60;99.90
21823;DHT22;11074;48.596;9.238;2023-04-24T05:44:18;11.60;99.90
21823;DHT22;11074;48.596;9.238;2023-04-24T05:46:43;11.60;99.90
21823;DHT22;11074;48.596;9.238;2023-04-24T05:49:09;11.60;99.90
21823;DHT22;11074;48.596;9.238;2023-04-24T05:51:35;11.60;99.90
21823;DHT22;11074;48.596;9.238;2023-04-24T05:54:00;11.50;99.90
21823;DHT22;11074;48.596;9.238;2023-04-24T05:56:27;11.60;99.90
21823;DHT22;11074;48.596;9.238;2023-04-24T05:58:52;11.60;99.90
21823;DHT22;11074;48.596;9.238;2023-04-24T06:01:18;11.60;99.90
21823;DHT22;11074;48.596;9.238;2023-04-24T06:03:44;11.60;99.90
21823;DHT22;11074;48.596;9.238;2023-04-24T06:06:10;11.60;99.90
21823;DHT22;11074;48.596;9.238;2023-04-24T06:08:36;11.60;99.90
21823;DHT22;11074;48.596;9.238;2023-04-24T06:11:02;11.60;99.90
21823;DHT22;11074;48.596;9.238;2023-04-24T06:13:27;11.70;99.90
21823;DHT22;11074;48.596;9.238;2023-04-24T06:15:53;11.70;99.90
21823;DHT22;11074;48.596;9.238;2023-04-24T06:18:19;11.70;99.90
21823;DHT22;11074;48.596;9.238;2023-04-24T06:20:47;11.70;99.90
21823;DHT22;11074;48.596;9.238;2023-04-24T06:23:12;11.70;99.90
21823;DHT22;11074;48.596;9.238;2023-04-24T06:25:38;11.80;99.90
21823;DHT22;11074;48.596;9.238;2023-04-24T06:28:04;11.90;99.90
21823;DHT22;11074;48.596;9.238;2023-04-24T06:30:30;12.00;99.90
21823;DHT22;11074;48.596;9.238;2023-04-24T06:32:56;12.00;99.90
21823;DHT22;11074;48.596;9.238;2023-04-24T06:35:22;12.10;99.90
21823;DHT22;11074;48.596;9.238;2023-04-24T06:37:48;12.20;99.90
21823;DHT22;11074;48.596;9.238;2023-04-24T06:40:14;12.20;99.90
21823;DHT22;11074;48.596;9.238;2023-04-24T06:42:40;12.30;99.90
21823;DHT22;11074;48.596;9.238;2023-04-24T06:45:06;12.30;99.90
21823;DHT22;11074;48.596;9.238;2023-04-24T06:47:32;12.30;99.90
21823;DHT22;11074;48.596;9.238;2023-04-24T06:49:58;12.20;99.90
21823;DHT22;11074;48.596;9.238;2023-04-24T06:52:24;12.30;99.90
21823;DHT22;11074;48.596;9.238;2023-04-24T06:54:49;12.40;99.90
21823;DHT22;11074;48.596;9.238;2023-04-24T06:57:15;12.40;99.90
21823;DHT22;11074;48.596;9.238;2023-04-24T06:59:42;12.50;99.90
21823;DHT22;11074;48.596;9.238;2023-04-24T07:02:07;12.60;99.90
21823;DHT22;11074;48.596;9.238;2023-04-24T07:04:33;12.60;99.90
21823;DHT22;11074;48.596;9.238;2023-04-24T07:06:59;12.60;99.90
21823;DHT22;11074;48.596;9.238;2023-04-24T07:09:25;12.70;99.90
21823;DHT22;11074;48.596;9.238;2023-04-24T07:11:52;12.70;99.90
21823;DHT22;11074;48.596;9.238;2023-04-24T07:14:19;12.70;99.90
21823;DHT22;11074;48.596;9.238;2023-04-24T07:16:45;12.90;99.90
21823;DHT22;11074;48.596;9.238;2023-04-24T07:19:12;12.80;99.90
21823;DHT22;11074;48.596;9.238;2023-04-24T07:21:39;12.70;99.90
21823;DHT22;11074;48.596;9.238;2023-04-24T07:24:04;12.50;99.90
21823;DHT22;11074;48.596;9.238;2023-04-24T07:26:31;12.40;99.90
21823;DHT22;11074;48.596;9.238;2023-04-24T07:28:57;12.40;99.90
21823;DHT22;11074;48.596;9.238;2023-04-24T07:31:22;12.40;99.90
21823;DHT22;11074;48.596;9.238;2023-04-24T07:33:48;12.30;99.90
21823;DHT22;11074;48.596;9.238;2023-04-24T07:36:15;12.30;99.90
21823;DHT22;11074;48.596;9.238;2023-04-24T07:38:44;12.40;99.90
21823;DHT22;11074;48.596;9.238;2023-04-24T07:41:11;12.50;99.90
21823;DHT22;11074;48.596;9.238;2023-04-24T07:43:37;12.70;99.90
21823;DHT22;11074;48.596;9.238;2023-04-24T07:46:03;12.80;99.90
21823;DHT22;11074;48.596;9.238;2023-04-24T07:48:29;13.00;99.90
21823;DHT22;11074;48.596;9.238;2023-04-24T07:50:55;13.20;99.90
21823;DHT22;11074;48.596;9.238;2023-04-24T07:53:20;13.30;99.90
21823;DHT22;11074;48.596;9.238;2023-04-24T07:55:46;13.40;99.90
21823;DHT22;11074;48.596;9.238;2023-04-24T07:58:12;13.50;99.90
21823;DHT22;11074;48.596;9.238;2023-04-24T08:00:37;13.50;99.90
21823;DHT22;11074;48.596;9.238;2023-04-24T08:03:03;13.40;99.90
21823;DHT22;11074;48.596;9.238;2023-04-24T08:05:29;13.50;99.90
21823;DHT22;11074;48.596;9.238;2023-04-24T08:07:55;13.70;99.90
21823;DHT22;11074;48.596;9.238;2023-04-24T08:10:22;13.70;99.90
21823;DHT22;11074;48.596;9.238;2023-04-24T08:12:49;13.70;99.90
21823;DHT22;11074;48.596;9.238;2023-04-24T08:15:15;13.70;99.90
21823;DHT22;11074;48.596;9.238;2023-04-24T08:17:40;13.60;99.90
21823;DHT22;11074;48.596;9.238;2023-04-24T08:20:07;13.70;99.90
21823;DHT22;11074;48.596;9.238;2023-04-24T08:22:39;13.80;99.90
21823;DHT22;11074;48.596;9.238;2023-04-24T08:25:06;13.80;99.90
21823;DHT22;11074;48.596;9.238;2023-04-24T08:27:32;13.90;99.90
21823;DHT22;11074;48.596;9.238;2023-04-24T08:29:58;13.70;99.90
21823;DHT22;11074;48.596;9.238;2023-04-24T08:32:26;13.50;99.90
21823;DHT22;11074;48.596;9.238;2023-04-24T08:34:54;13.40;99.90
21823;DHT22;11074;48.596;9.238;2023-04-24T08:37:25;13.40;99.90
21823;DHT22;11074;48.596;9.238;2023-04-24T08:39:52;13.20;99.90
21823;DHT22;11074;48.596;9.238;2023-04-24T08:42:19;13.00;99.90
21823;DHT22;11074;48.596;9.238;2023-04-24T08:44:46;12.80;99.90
21823;DHT22;11074;48.596;9.238;2023-04-24T08:47:15;12.60;99.90
21823;DHT22;11074;48.596;9.238;2023-04-24T08:49:41;12.60;99.90
21823;DHT22;11074;48.596;9.238;2023-04-24T08:52:08;12.70;99.90
21823;DHT22;11074;48.596;9.238;2023-04-24T08:54:35;12.70;99.90
21823;DHT22;11074;48.596;9.238;2023-04-24T08:57:02;12.90;99.90
21823;DHT22;11074;48.596;9.238;2023-04-24T08:59:29;13.10;99.90
21823;DHT22;11074;48.596;9.238;2023-04-24T09:01:56;13.30;99.90
21823;DHT22;11074;48.596;9.238;2023-04-24T09:04:23;13.50;99.90
21823;DHT22;11074;48.596;9.238;2023-04-24T09:06:51;13.60;99.90
21823;DHT22;11074;48.596;9.238;2023-04-24T09:09:21;13.60;99.90
21823;DHT22;11074;48.596;9.238;2023-04-24T09:11:49;13.40;99.90
21823;DHT22;11074;48.596;9.238;2023-04-24T09:14:16;13.20;99.90
21823;DHT22;11074;48.596;9.238;2023-04-24T09:16:43;13.20;99.90
21823;DHT22;11074;48.596;9.238;2023-04-24T09:19:08;13.10;99.90
21823;DHT22;11074;48.596;9.238;2023-04-24T09:21:35;13.10;99.90
21823;DHT22;11074;48.596;9.238;2023-04-24T09:24:04;13.20;99.90
21823;DHT22;11074;48.596;9.238;2023-04-24T09:26:35;13.20;99.90
21823;DHT22;11074;48.596;9.238;2023-04-24T09:29:03;13.20;99.90
21823;DHT22;11074;48.596;9.238;2023-04-24T09:31:30;13.50;99.90
21823;DHT22;11074;48.596;9.238;2023-04-24T09:34:01;13.60;99.90
21823;DHT22;11074;48.596;9.238;2023-04-24T09:36:35;13.60;99.90
21823;DHT22;11074;48.596;9.238;2023-04-24T09:39:07;13.60;99.90
21823;DHT22;11074;48.596;9.238;2023-04-24T09:41:44;13.50;99.90
21823;DHT22;11074;48.596;9.238;2023-04-24T09:44:19;13.40;99.90
21823;DHT22;11074;48.596;9.238;2023-04-24T09:46:50;13.40;99.90
21823;DHT22;11074;48.596;9.238;2023-04-24T09:49:22;13.30;99.90
21823;DHT22;11074;48.596;9.238;2023-04-24T09:51:50;13.20;99.90
21823;DHT22;11074;48.596;9.238;2023-04-24T09:54:18;13.30;99.90
21823;DHT22;11074;48.596;9.238;2023-04-24T09:56:48;13.30;99.90
21823;DHT22;11074;48.596;9.238;2023-04-24T09:59:16;13.20;99.90
21823;DHT22;11074;48.596;9.238;2023-04-24T10:01:44;13.10;99.90
21823;DHT22;11074;48.596;9.238;2023-04-24T10:04:18;13.20;99.90
21823;DHT22;11074;48.596;9.238;2023-04-24T10:06:47;13.30;99.90
21823;DHT22;11074;48.596;9.238;2023-04-24T10:09:21;13.20;99.90
21823;DHT22;11074;48.596;9.238;2023-04-24T10:11:50;13.20;99.90
21823;DHT22;11074;48.596;9.238;2023-04-24T10:14:19;13.10;99.90
21823;DHT22;11074;48.596;9.238;2023-04-24T10:16:49;13.20;99.90
21823;DHT22;11074;48.596;9.238;2023-04-24T10:19:17;13.30;99.90
21823;DHT22;11074;48.596;9.238;2023-04-24T10:21:46;13.40;99.90
21823;DHT22;11074;48.596;9.238;2023-04-24T10:24:16;13.60;99.90
21823;DHT22;11074;48.596;9.238;2023-04-24T10:26:45;13.90;99.90
21823;DHT22;11074;48.596;9.238;2023-04-24T10:29:12;14.00;99.90
21823;DHT22;11074;48.596;9.238;2023-04-24T10:31:40;14.10;99.90
21823;DHT22;11074;48.596;9.238;2023-04-24T10:34:08;14.10;99.90
21823;DHT22;11074;48.596;9.238;2023-04-24T10:36:36;14.00;99.90
21823;DHT22;11074;48.596;9.238;2023-04-24T10:39:24;13.90;99.90
21823;DHT22;11074;48.596;9.238;2023-04-24T10:41:50;13.80;99.90
21823;DHT22;11074;48.596;9.238;2023-04-24T10:44:17;13.80;99.90
21823;DHT22;11074;48.596;9.238;2023-04-24T10:46:44;13.90;99.90
21823;DHT22;11074;48.596;9.238;2023-04-24T10:49:12;14.10;99.90
21823;DHT22;11074;48.596;9.238;2023-04-24T10:51:54;14.50;99.90
21823;DHT22;11074;48.596;9.238;2023-04-24T10:54:27;14.70;99.90
21823;DHT22;11074;48.596;9.238;2023-04-24T10:59:49;14.80;99.90
21823;DHT22;11074;48.596;9.238;2023-04-24T11:02:39;14.90;99.90
21823;DHT22;11074;48.596;9.238;2023-04-24T11:05:08;14.80;99.90
21823;DHT22;11074;48.596;9.238;2023-04-24T11:08:14;14.40;99.90
21823;DHT22;11074;48.596;9.238;2023-04-24T11:10:55;14.30;99.90
21823;DHT22;11074;48.596;9.238;2023-04-24T11:13:24;14.20;99.90
21823;DHT22;11074;48.596;9.238;2023-04-24T11:16:20;14.30;99.90
21823;DHT22;11074;48.596;9.238;2023-04-24T11:19:08;14.40;99.90
21823;DHT22;11074;48.596;9.238;2023-04-24T11:26:55;14.20;99.90
21823;DHT22;11074;48.596;9.238;2023-04-24T11:29:22;14.00;99.90
21823;DHT22;11074;48.596;9.238;2023-04-24T11:32:15;13.80;99.90
21823;DHT22;11074;48.596;9.238;2023-04-24T11:34:58;13.50;99.90
21823;DHT22;11074;48.596;9.238;2023-04-24T11:37:37;13.60;99.90
21823;DHT22;11074;48.596;9.238;2023-04-24T11:40:06;13.50;99.90
21823;DHT22;11074;48.596;9.238;2023-04-24T11:42:38;13.50;99.90
21823;DHT22;11074;48.596;9.238;2023-04-24T11:45:16;13.50;99.90
21823;DHT22;11074;48.596;9.238;2023-04-24T11:47:44;13.50;99.90
21823;DHT22;11074;48.596;9.238;2023-04-24T11:50:15;13.50;99.90
21823;DHT22;11074;48.596;9.238;2023-04-24T11:52:47;13.40;99.90
21823;DHT22;11074;48.596;9.238;2023-04-24T11:57:41;13.40;99.90
21823;DHT22;11074;48.596;9.238;2023-04-24T12:00:17;13.50;99.90
21823;DHT22;11074;48.596;9.238;2023-04-24T12:02:44;13.70;99.90
21823;DHT22;11074;48.596;9.238;2023-04-24T12:05:23;13.90;99.90
21823;DHT22;11074;48.596;9.238;2023-04-24T12:07:55;14.20;99.90
21823;DHT22;11074;48.596;9.238;2023-04-24T12:10:25;14.40;99.90
21823;DHT22;11074;48.596;9.238;2023-04-24T12:12:52;14.60;99.90
21823;DHT22;11074;48.596;9.238;2023-04-24T12:15:19;14.50;99.90
21823;DHT22;11074;48.596;9.238;2023-04-24T12:17:46;14.40;99.90
21823;DHT22;11074;48.596;9.238;2023-04-24T12:20:13;14.40;99.90
21823;DHT22;11074;48.596;9.238;2023-04-24T12:22:43;14.30;99.90
21823;DHT22;11074;48.596;9.238;2023-04-24T12:25:19;14.30;99.90
21823;DHT22;11074;48.596;9.238;2023-04-24T12:27:46;14.20;99.90
21823;DHT22;11074;48.596;9.238;2023-04-24T12:30:17;14.20;99.90
21823;DHT22;11074;48.596;9.238;2023-04-24T12:32:44;14.10;99.90
21823;DHT22;11074;48.596;9.238;2023-04-24T12:35:12;14.10;99.90
21823;DHT22;11074;48.596;9.238;2023-04-24T12:37:37;14.00;99.90
21823;DHT22;11074;48.596;9.238;2023-04-24T12:40:09;13.80;99.90
21823;DHT22;11074;48.596;9.238;2023-04-24T12:42:48;13.60;99.90
21823;DHT22;11074;48.596;9.238;2023-04-24T12:45:17;13.40;99.90
21823;DHT22;11074;48.596;9.238;2023-04-24T12:47:45;13.50;99.90
21823;DHT22;11074;48.596;9.238;2023-04-24T12:50:13;13.60;99.90
21823;DHT22;11074;48.596;9.238;2023-04-24T12:52:40;13.50;99.90
21823;DHT22;11074;48.596;9.238;2023-04-24T12:55:07;13.40;99.90
21823;DHT22;11074;48.596;9.238;2023-04-24T12:57:34;13.50;99.90
21823;DHT22;11074;48.596;9.238;2023-04-24T13:00:03;13.60;99.90
21823;DHT22;11074;48.596;9.238;2023-04-24T13:02:31;13.60;99.90
21823;DHT22;11074;48.596;9.238;2023-04-24T13:04:58;13.80;99.90
21823;DHT22;11074;48.596;9.238;2023-04-24T13:07:24;13.80;99.90
21823;DHT22;11074;48.596;9.238;2023-04-24T13:09:51;14.10;99.90
21823;DHT22;11074;48.596;9.238;2023-04-24T13:12:18;14.70;99.90
21823;DHT22;11074;48.596;9.238;2023-04-24T13:14:45;15.20;99.90
21823;DHT22;11074;48.596;9.238;2023-04-24T13:17:11;15.60;99.90
21823;DHT22;11074;48.596;9.238;2023-04-24T13:19:39;15.50;99.90
21823;DHT22;11074;48.596;9.238;2023-04-24T13:22:06;15.90;99.90
21823;DHT22;11074;48.596;9.238;2023-04-24T13:24:34;16.30;99.90
21823;DHT22;11074;48.596;9.238;2023-04-24T13:27:01;15.80;99.90
21823;DHT22;11074;48.596;9.238;2023-04-24T13:29:28;15.30;99.90
21823;DHT22;11074;48.596;9.238;2023-04-24T13:31:54;15.40;99.90
21823;DHT22;11074;48.596;9.238;2023-04-24T13:34:22;15.30;99.90
21823;DHT22;11074;48.596;9.238;2023-04-24T13:36:50;15.10;99.90
21823;DHT22;11074;48.596;9.238;2023-04-24T13:39:16;14.80;99.90
21823;DHT22;11074;48.596;9.238;2023-04-24T13:41:42;14.50;99.90
21823;DHT22;11074;48.596;9.238;2023-04-24T13:44:08;14.30;99.90
21823;DHT22;11074;48.596;9.238;2023-04-24T13:46:34;14.10;99.90
21823;DHT22;11074;48.596;9.238;2023-04-24T13:49:02;14.00;99.90
21823;DHT22;11074;48.596;9.238;2023-04-24T13:51:29;14.10;99.90
21823;DHT22;11074;48.596;9.238;2023-04-24T13:53:54;14.20;99.90
21823;DHT22;11074;48.596;9.238;2023-04-24T13:56:20;14.20;99.90
21823;DHT22;11074;48.596;9.238;2023-04-24T13:58:47;14.20;99.90
21823;DHT22;11074;48.596;9.238;2023-04-24T14:01:14;14.10;99.90
21823;DHT22;11074;48.596;9.238;2023-04-24T14:03:41;14.00;99.90
21823;DHT22;11074;48.596;9.238;2023-04-24T14:06:08;13.90;99.90
21823;DHT22;11074;48.596;9.238;2023-04-24T14:08:34;13.90;99.90
21823;DHT22;11074;48.596;9.238;2023-04-24T14:11:00;13.80;99.90
21823;DHT22;11074;48.596;9.238;2023-04-24T14:13:26;13.70;99.90
21823;DHT22;11074;48.596;9.238;2023-04-24T14:15:53;13.60;99.90
21823;DHT22;11074;48.596;9.238;2023-04-24T14:18:18;13.60;99.90
21823;DHT22;11074;48.596;9.238;2023-04-24T14:20:44;13.60;99.90
21823;DHT22;11074;48.596;9.238;2023-04-24T14:23:10;13.60;99.90
21823;DHT22;11074;48.596;9.238;2023-04-24T14:25:36;13.50;99.90
21823;DHT22;11074;48.596;9.238;2023-04-24T14:28:02;13.60;99.90
21823;DHT22;11074;48.596;9.238;2023-04-24T14:30:28;13.60;99.90
21823;DHT22;11074;48.596;9.238;2023-04-24T14:32:54;13.50;99.90
21823;DHT22;11074;48.596;9.238;2023-04-24T14:35:19;13.60;99.90
21823;DHT22;11074;48.596;9.238;2023-04-24T14:37:45;13.70;99.90
21823;DHT22;11074;48.596;9.238;2023-04-24T14:40:11;13.60;99.90
21823;DHT22;11074;48.596;9.238;2023-04-24T14:42:37;13.60;99.90
21823;DHT22;11074;48.596;9.238;2023-04-24T14:45:03;13.60;99.90
21823;DHT22;11074;48.596;9.238;2023-04-24T14:47:29;13.70;99.90
21823;DHT22;11074;48.596;9.238;2023-04-24T14:49:55;13.90;99.90
21823;DHT22;11074;48.596;9.238;2023-04-24T14:52:21;14.00;99.90
21823;DHT22;11074;48.596;9.238;2023-04-24T14:54:46;14.10;99.90
21823;DHT22;11074;48.596;9.238;2023-04-24T14:57:12;14.30;99.90
21823;DHT22;11074;48.596;9.238;2023-04-24T14:59:38;14.40;99.90
21823;DHT22;11074;48.596;9.238;2023-04-24T15:02:05;14.40;99.90
21823;DHT22;11074;48.596;9.238;2023-04-24T15:04:31;14.50;99.90
21823;DHT22;11074;48.596;9.238;2023-04-24T15:06:57;14.40;99.90
21823;DHT22;11074;48.596;9.238;2023-04-24T15:09:23;14.30;99.90
21823;DHT22;11074;48.596;9.238;2023-04-24T15:11:51;14.30;99.90
21823;DHT22;11074;48.596;9.238;2023-04-24T15:14:17;14.30;99.90
21823;DHT22;11074;48.596;9.238;2023-04-24T15:16:43;14.30;99.90
21823;DHT22;11074;48.596;9.238;2023-04-24T15:19:10;14.30;99.90
21823;DHT22;11074;48.596;9.238;2023-04-24T15:21:37;14.30;99.90
21823;DHT22;11074;48.596;9.238;2023-04-24T15:24:04;14.20;99.90
21823;DHT22;11074;48.596;9.238;2023-04-24T15:26:29;14.30;99.90
21823;DHT22;11074;48.596;9.238;2023-04-24T15:28:56;14.30;99.90
21823;DHT22;11074;48.596;9.238;2023-04-24T15:31:22;14.10;99.90
21823;DHT22;11074;48.596;9.238;2023-04-24T15:33:51;14.10;99.90
21823;DHT22;11074;48.596;9.238;2023-04-24T15:36:17;14.10;99.90
21823;DHT22;11074;48.596;9.238;2023-04-24T15:38:44;14.20;99.90
21823;DHT22;11074;48.596;9.238;2023-04-24T15:41:11;14.10;99.90